sensor_id;sensor_type;location;lat;lon;timestamp;temperature;humidity
8093;DHT22;4089;52.420;13.334;2023-07-31T04:40:11;16.40;99.90
8093;DHT22;4089;52.420;13.334;2023-07-31T04:42:38;16.40;99.90
8093;DHT22;4089;52.420;13.334;2023-07-31T04:45:05;16.40;99.90
8093;DHT22;4089;52.420;13.334;2023-07-31T04:47:32;16.40;99.90
8093;DHT22;4089;52.420;13.334;2023-07-31T04:49:59;16.40;99.90
8093;DHT22;4089;52.420;13.334;2023-07-31T04:52:26;16.40;99.90
8093;DHT22;4089;52.420;13.334;2023-07-31T04:54:52;16.40;99.90
8093;DHT22;4089;52.420;13.334;2023-07-31T04:57:19;16.30;99.90
8093;DHT22;4089;52.420;13.334;2023-07-31T04:59:46;16.30;99.90
8093;DHT22;4089;52.420;13.334;2023-07-31T05:02:15;16.30;99.90
8093;DHT22;4089;52.420;13.334;2023-07-31T05:04:42;16.30;99.90
8093;DHT22;4089;52.420;13.334;2023-07-31T05:07:09;16.30;99.90
8093;DHT22;4089;52.420;13.334;2023-07-31T05:09:36;16.40;99.90
8093;DHT22;4089;52.420;13.334;2023-07-31T05:12:05;16.50;99.90
8093;DHT22;4089;52.420;13.334;2023-07-31T05:14:32;16.50;99.90
8093;DHT22;4089;52.420;13.334;2023-07-31T05:16:59;16.60;99.90
8093;DHT22;4089;52.420;13.334;2023-07-31T05:19:25;16.60;99.90
8093;DHT22;4089;52.420;13.334;2023-07-31T05:21:52;16.60;99.90
8093;DHT22;4089;52.420;13.334;2023-07-31T05:24:19;16.70;99.90
8093;DHT22;4089;52.420;13.334;2023-07-31T05:26:46;16.70;99.90
8093;DHT22;4089;52.420;13.334;2023-07-31T05:29:13;16.70;99.90
8093;DHT22;4089;52.420;13.334;2023-07-31T05:31:39;16.70;99.90
8093;DHT22;4089;52.420;13.334;2023-07-31T05:34:06;16.70;99.90
8093;DHT22;4089;52.420;13.334;2023-07-31T05:36:33;16.70;99.90
8093;DHT22;4089;52.420;13.334;2023-07-31T05:39:00;16.70;99.90
8093;DHT22;4089;52.420;13.334;2023-07-31T05:41:27;16.70;99.90
8093;DHT22;4089;52.420;13.334;2023-07-31T05:43:53;16.70;99.90
8093;DHT22;4089;52.420;13.334;2023-07-31T05:46:20;16.70;99.90
8093;DHT22;4089;52.420;13.334;2023-07-31T05:48:47;16.70;99.90
8093;DHT22;4089;52.420;13.334;2023-07-31T05:51:14;16.80;99.90
8093;DHT22;4089;52.420;13.334;2023-07-31T05:53:41;16.80;99.90
8093;DHT22;4089;52.420;13.334;2023-07-31T05:56:08;16.80;99.90
8093;DHT22;4089;52.420;13.334;2023-07-31T05:58:35;16.80;99.90
8093;DHT22;4089;52.420;13.334;2023-07-31T06:01:01;16.80;99.90
8093;DHT22;4089;52.420;13.334;2023-07-31T06:03:28;16.80;99.90
8093;DHT22;4089;52.420;13.334;2023-07-31T06:05:55;16.80;99.90
8093;DHT22;4089;52.420;13.334;2023-07-31T06:08:22;17.00;99.90
8093;DHT22;4089;52.420;13.334;2023-07-31T06:10:49;17.00;99.90
8093;DHT22;4089;52.420;13.334;2023-07-31T06:13:15;17.00;99.90
8093;DHT22;4089;52.420;13.334;2023-07-31T06:15:42;17.00;99.90
8093;DHT22;4089;52.420;13.334;2023-07-31T06:18:09;17.00;99.90
8093;DHT22;4089;52.420;13.334;2023-07-31T06:20:37;17.10;99.90
8093;DHT22;4089;52.420;13.334;2023-07-31T06:23:03;17.10;99.90
8093;DHT22;4089;52.420;13.334;2023-07-31T06:25:30;17.20;99.90
8093;DHT22;4089;52.420;13.334;2023-07-31T06:27:57;17.10;99.90
8093;DHT22;4089;52.420;13.334;2023-07-31T06:30:24;17.00;99.90
8093;DHT22;4089;52.420;13.334;2023-07-31T06:32:51;17.00;99.90
8093;DHT22;4089;52.420;13.334;2023-07-31T06:35:18;17.00;99.90
8093;DHT22;4089;52.420;13.334;2023-07-31T06:37:45;17.00;99.90
8093;DHT22;4089;52.420;13.334;2023-07-31T06:40:12;17.10;99.90
8093;DHT22;4089;52.420;13.334;2023-07-31T06:42:38;17.10;99.90
8093;DHT22;4089;52.420;13.334;2023-07-31T06:45:06;17.00;99.90
8093;DHT22;4089;52.420;13.334;2023-07-31T06:47:33;17.10;99.90
8093;DHT22;4089;52.420;13.334;2023-07-31T06:50:00;17.00;99.90
8093;DHT22;4089;52.420;13.334;2023-07-31T06:52:26;17.10;99.90
8093;DHT22;4089;52.420;13.334;2023-07-31T06:55:15;17.00;99.90
8093;DHT22;4089;52.420;13.334;2023-07-31T06:57:44;17.10;99.90
8093;DHT22;4089;52.420;13.334;2023-07-31T07:00:11;17.10;99.90
8093;DHT22;4089;52.420;13.334;2023-07-31T07:02:38;17.00;99.90
8093;DHT22;4089;52.420;13.334;2023-07-31T07:05:06;17.00;99.90
8093;DHT22;4089;52.420;13.334;2023-07-31T07:07:34;17.10;99.90
8093;DHT22;4089;52.420;13.334;2023-07-31T07:10:01;17.10;99.90
8093;DHT22;4089;52.420;13.334;2023-07-31T07:12:30;17.10;99.90
8093;DHT22;4089;52.420;13.334;2023-07-31T07:14:57;17.00;99.90
8093;DHT22;4089;52.420;13.334;2023-07-31T07:17:25;16.90;99.90
8093;DHT22;4089;52.420;13.334;2023-07-31T07:19:52;17.00;99.90
8093;DHT22;4089;52.420;13.334;2023-07-31T07:22:19;17.10;99.90
8093;DHT22;4089;52.420;13.334;2023-07-31T07:24:45;17.20;99.90
8093;DHT22;4089;52.420;13.334;2023-07-31T07:27:12;17.30;99.90
8093;DHT22;4089;52.420;13.334;2023-07-31T07:29:39;17.40;99.90
8093;DHT22;4089;52.420;13.334;2023-07-31T07:32:06;17.40;99.90
8093;DHT22;4089;52.420;13.334;2023-07-31T07:34:33;17.60;99.90
8093;DHT22;4089;52.420;13.334;2023-07-31T07:37:00;17.50;99.90
8093;DHT22;4089;52.420;13.334;2023-07-31T07:39:27;17.50;99.90
8093;DHT22;4089;52.420;13.334;2023-07-31T07:41:54;17.60;99.90
8093;DHT22;4089;52.420;13.334;2023-07-31T07:44:21;17.50;99.90
8093;DHT22;4089;52.420;13.334;2023-07-31T07:46:48;17.40;99.90
8093;DHT22;4089;52.420;13.334;2023-07-31T07:49:15;17.60;99.90
8093;DHT22;4089;52.420;13.334;2023-07-31T07:51:42;17.60;99.90
8093;DHT22;4089;52.420;13.334;2023-07-31T07:54:08;17.60;99.90
8093;DHT22;4089;52.420;13.334;2023-07-31T07:56:35;17.60;99.90
8093;DHT22;4089;52.420;13.334;2023-07-31T07:59:03;17.60;99.90
8093;DHT22;4089;52.420;13.334;2023-07-31T08:01:30;17.60;99.90
8093;DHT22;4089;52.420;13.334;2023-07-31T08:03:58;17.30;99.90
8093;DHT22;4089;52.420;13.334;2023-07-31T08:06:25;17.00;99.90
8093;DHT22;4089;52.420;13.334;2023-07-31T08:08:51;17.00;99.90
8093;DHT22;4089;52.420;13.334;2023-07-31T08:11:18;17.00;99.90
8093;DHT22;4089;52.420;13.334;2023-07-31T08:13:46;17.10;99.90
8093;DHT22;4089;52.420;13.334;2023-07-31T08:16:12;17.00;99.90
8093;DHT22;4089;52.420;13.334;2023-07-31T08:18:39;17.20;99.90
8093;DHT22;4089;52.420;13.334;2023-07-31T08:21:07;17.30;99.90
8093;DHT22;4089;52.420;13.334;2023-07-31T08:23:34;17.40;99.90
8093;DHT22;4089;52.420;13.334;2023-07-31T08:26:01;17.40;99.90
8093;DHT22;4089;52.420;13.334;2023-07-31T08:28:27;17.50;99.90
8093;DHT22;4089;52.420;13.334;2023-07-31T08:30:54;17.40;99.90
8093;DHT22;4089;52.420;13.334;2023-07-31T08:33:21;17.50;99.90
8093;DHT22;4089;52.420;13.334;2023-07-31T08:35:48;17.50;99.90
8093;DHT22;4089;52.420;13.334;2023-07-31T08:38:15;17.60;99.90
8093;DHT22;4089;52.420;13.334;2023-07-31T08:40:42;17.70;99.90
8093;DHT22;4089;52.420;13.334;2023-07-31T08:43:09;17.60;99.90
8093;DHT22;4089;52.420;13.334;2023-07-31T08:45:35;17.70;99.90
8093;DHT22;4089;52.420;13.334;2023-07-31T08:48:03;17.70;99.90
8093;DHT22;4089;52.420;13.334;2023-07-31T08:50:30;17.80;99.90
8093;DHT22;4089;52.420;13.334;2023-07-31T08:52:57;17.90;99.90
8093;DHT22;4089;52.420;13.334;2023-07-31T08:55:25;17.90;99.90
8093;DHT22;4089;52.420;13.334;2023-07-31T08:57:52;18.00;99.90
8093;DHT22;4089;52.420;13.334;2023-07-31T09:00:20;18.00;99.90
8093;DHT22;4089;52.420;13.334;2023-07-31T09:03:03;17.90;99.90
8093;DHT22;4089;52.420;13.334;2023-07-31T09:05:31;18.00;99.90
8093;DHT22;4089;52.420;13.334;2023-07-31T09:07:58;18.00;99.90
8093;DHT22;4089;52.420;13.334;2023-07-31T09:10:27;18.10;99.90
8093;DHT22;4089;52.420;13.334;2023-07-31T09:12:54;18.00;99.90
8093;DHT22;4089;52.420;13.334;2023-07-31T09:15:23;18.20;99.90
8093;DHT22;4089;52.420;13.334;2023-07-31T09:18:04;18.20;99.90
8093;DHT22;4089;52.420;13.334;2023-07-31T09:20:32;18.00;99.90
8093;DHT22;4089;52.420;13.334;2023-07-31T09:23:13;18.00;99.90
8093;DHT22;4089;52.420;13.334;2023-07-31T09:25:44;18.00;99.90
8093;DHT22;4089;52.420;13.334;2023-07-31T09:28:11;17.90;99.90
8093;DHT22;4089;52.420;13.334;2023-07-31T09:30:47;17.70;99.90
8093;DHT22;4089;52.420;13.334;2023-07-31T09:33:15;17.70;99.90
8093;DHT22;4089;52.420;13.334;2023-07-31T09:35:51;17.80;99.90
8093;DHT22;4089;52.420;13.334;2023-07-31T09:38:18;17.90;99.90
8093;DHT22;4089;52.420;13.334;2023-07-31T09:40:47;18.00;99.90
8093;DHT22;4089;52.420;13.334;2023-07-31T09:43:23;18.00;99.90
8093;DHT22;4089;52.420;13.334;2023-07-31T09:45:55;18.00;99.90
8093;DHT22;4089;52.420;13.334;2023-07-31T09:48:23;18.00;99.90
8093;DHT22;4089;52.420;13.334;2023-07-31T09:50:53;18.00;99.90
8093;DHT22;4089;52.420;13.334;2023-07-31T09:53:28;18.20;99.90
8093;DHT22;4089;52.420;13.334;2023-07-31T09:55:58;18.30;99.90
8093;DHT22;4089;52.420;13.334;2023-07-31T09:58:28;18.30;99.90
8093;DHT22;4089;52.420;13.334;2023-07-31T10:00:58;18.30;99.90
8093;DHT22;4089;52.420;13.334;2023-07-31T10:03:26;18.40;99.90
8093;DHT22;4089;52.420;13.334;2023-07-31T10:05:55;18.40;99.90
8093;DHT22;4089;52.420;13.334;2023-07-31T10:08:28;18.50;99.90
8093;DHT22;4089;52.420;13.334;2023-07-31T10:10:59;18.60;99.90
8093;DHT22;4089;52.420;13.334;2023-07-31T10:13:28;18.60;99.90
8093;DHT22;4089;52.420;13.334;2023-07-31T10:15:58;18.50;99.90
8093;DHT22;4089;52.420;13.334;2023-07-31T10:18:26;18.50;99.90
8093;DHT22;4089;52.420;13.334;2023-07-31T10:20:54;18.50;99.90
8093;DHT22;4089;52.420;13.334;2023-07-31T10:23:22;18.60;99.90
8093;DHT22;4089;52.420;13.334;2023-07-31T10:25:53;18.70;99.90
8093;DHT22;4089;52.420;13.334;2023-07-31T10:28:21;18.90;99.90
8093;DHT22;4089;52.420;13.334;2023-07-31T10:30:49;19.00;99.90
8093;DHT22;4089;52.420;13.334;2023-07-31T10:33:18;19.00;99.90
8093;DHT22;4089;52.420;13.334;2023-07-31T10:35:49;19.10;99.90
8093;DHT22;4089;52.420;13.334;2023-07-31T10:38:18;19.00;99.90
8093;DHT22;4089;52.420;13.334;2023-07-31T10:40:44;19.30;99.90
8093;DHT22;4089;52.420;13.334;2023-07-31T10:43:24;19.50;99.90
8093;DHT22;4089;52.420;13.334;2023-07-31T10:45:54;19.70;99.90
8093;DHT22;4089;52.420;13.334;2023-07-31T10:48:21;20.00;99.90
8093;DHT22;4089;52.420;13.334;2023-07-31T10:50:55;20.50;99.90
8093;DHT22;4089;52.420;13.334;2023-07-31T10:53:33;20.50;99.90
8093;DHT22;4089;52.420;13.334;2023-07-31T10:56:07;20.60;99.90
8093;DHT22;4089;52.420;13.334;2023-07-31T10:58:34;20.70;99.90
8093;DHT22;4089;52.420;13.334;2023-07-31T11:01:05;20.70;99.90
8093;DHT22;4089;52.420;13.334;2023-07-31T11:03:42;20.90;99.90
8093;DHT22;4089;52.420;13.334;2023-07-31T11:06:10;21.00;99.90
8093;DHT22;4089;52.420;13.334;2023-07-31T11:08:47;20.80;99.90
8093;DHT22;4089;52.420;13.334;2023-07-31T11:11:16;20.80;99.90
8093;DHT22;4089;52.420;13.334;2023-07-31T11:13:45;20.80;99.90
8093;DHT22;4089;52.420;13.334;2023-07-31T11:16:12;20.90;99.90
8093;DHT22;4089;52.420;13.334;2023-07-31T11:18:41;20.80;99.90
8093;DHT22;4089;52.420;13.334;2023-07-31T11:21:12;20.90;99.90
8093;DHT22;4089;52.420;13.334;2023-07-31T11:23:39;21.00;99.90
8093;DHT22;4089;52.420;13.334;2023-07-31T11:26:07;21.00;99.90
8093;DHT22;4089;52.420;13.334;2023-07-31T11:28:35;21.00;99.90
8093;DHT22;4089;52.420;13.334;2023-07-31T11:31:02;21.00;99.90
8093;DHT22;4089;52.420;13.334;2023-07-31T11:33:29;21.20;99.90
8093;DHT22;4089;52.420;13.334;2023-07-31T11:35:56;21.40;99.90
8093;DHT22;4089;52.420;13.334;2023-07-31T11:38:27;21.80;99.90
8093;DHT22;4089;52.420;13.334;2023-07-31T11:40:59;21.70;99.90
8093;DHT22;4089;52.420;13.334;2023-07-31T11:43:26;21.50;99.90
8093;DHT22;4089;52.420;13.334;2023-07-31T11:46:00;21.30;99.90
8093;DHT22;4089;52.420;13.334;2023-07-31T11:48:32;21.10;99.90
8093;DHT22;4089;52.420;13.334;2023-07-31T11:51:02;21.10;99.90
8093;DHT22;4089;52.420;13.334;2023-07-31T11:53:51;21.10;99.90
8093;DHT22;4089;52.420;13.334;2023-07-31T11:56:18;21.10;99.90
8093;DHT22;4089;52.420;13.334;2023-07-31T11:58:47;21.20;99.90
8093;DHT22;4089;52.420;13.334;2023-07-31T12:01:15;21.20;99.90
8093;DHT22;4089;52.420;13.334;2023-07-31T12:03:44;21.20;99.90
8093;DHT22;4089;52.420;13.334;2023-07-31T12:06:12;21.20;99.90
8093;DHT22;4089;52.420;13.334;2023-07-31T12:08:38;21.10;99.90
8093;DHT22;4089;52.420;13.334;2023-07-31T12:11:07;21.10;99.90
8093;DHT22;4089;52.420;13.334;2023-07-31T12:13:36;21.10;99.90
8093;DHT22;4089;52.420;13.334;2023-07-31T12:16:04;21.10;99.90
8093;DHT22;4089;52.420;13.334;2023-07-31T12:18:35;21.20;99.90
8093;DHT22;4089;52.420;13.334;2023-07-31T12:21:05;21.20;99.90
8093;DHT22;4089;52.420;13.334;2023-07-31T12:23:33;21.10;99.90
8093;DHT22;4089;52.420;13.334;2023-07-31T12:28:39;21.30;99.90
8093;DHT22;4089;52.420;13.334;2023-07-31T12:31:14;21.30;99.90
8093;DHT22;4089;52.420;13.334;2023-07-31T12:33:42;21.20;99.90
8093;DHT22;4089;52.420;13.334;2023-07-31T12:36:21;21.20;99.90
8093;DHT22;4089;52.420;13.334;2023-07-31T12:38:48;21.20;99.90
8093;DHT22;4089;52.420;13.334;2023-07-31T12:41:16;21.20;99.90
8093;DHT22;4089;52.420;13.334;2023-07-31T12:43:44;21.50;99.90
8093;DHT22;4089;52.420;13.334;2023-07-31T12:46:11;21.70;99.90
8093;DHT22;4089;52.420;13.334;2023-07-31T12:48:40;21.60;99.90
8093;DHT22;4089;52.420;13.334;2023-07-31T12:51:07;21.50;99.90
8093;DHT22;4089;52.420;13.334;2023-07-31T12:53:34;21.70;99.90
8093;DHT22;4089;52.420;13.334;2023-07-31T12:56:01;21.80;99.90
8093;DHT22;4089;52.420;13.334;2023-07-31T12:58:28;21.70;99.90
8093;DHT22;4089;52.420;13.334;2023-07-31T13:00:55;21.60;99.90
8093;DHT22;4089;52.420;13.334;2023-07-31T13:03:22;21.40;99.90
8093;DHT22;4089;52.420;13.334;2023-07-31T13:05:50;21.50;99.90
8093;DHT22;4089;52.420;13.334;2023-07-31T13:08:17;21.60;99.90
8093;DHT22;4089;52.420;13.334;2023-07-31T13:10:44;21.60;99.90
8093;DHT22;4089;52.420;13.334;2023-07-31T13:13:11;21.30;99.90
8093;DHT22;4089;52.420;13.334;2023-07-31T13:15:38;21.20;99.90
8093;DHT22;4089;52.420;13.334;2023-07-31T13:18:09;21.20;99.90
8093;DHT22;4089;52.420;13.334;2023-07-31T13:20:37;21.20;99.90
8093;DHT22;4089;52.420;13.334;2023-07-31T13:23:04;21.20;99.90
8093;DHT22;4089;52.420;13.334;2023-07-31T13:25:32;21.10;99.90
8093;DHT22;4089;52.420;13.334;2023-07-31T13:28:01;21.10;99.90
8093;DHT22;4089;52.420;13.334;2023-07-31T13:30:32;21.20;99.90
8093;DHT22;4089;52.420;13.334;2023-07-31T13:33:00;21.40;99.90
8093;DHT22;4089;52.420;13.334;2023-07-31T13:35:27;21.80;99.90
8093;DHT22;4089;52.420;13.334;2023-07-31T13:38:00;21.80;99.90
8093;DHT22;4089;52.420;13.334;2023-07-31T13:40:27;22.00;99.90
8093;DHT22;4089;52.420;13.334;2023-07-31T13:42:54;22.00;99.90
8093;DHT22;4089;52.420;13.334;2023-07-31T13:45:22;21.90;99.90
8093;DHT22;4089;52.420;13.334;2023-07-31T13:47:50;21.80;99.90
8093;DHT22;4089;52.420;13.334;2023-07-31T13:50:18;21.70;99.90
8093;DHT22;4089;52.420;13.334;2023-07-31T13:52:47;21.90;99.90
8093;DHT22;4089;52.420;13.334;2023-07-31T13:55:15;22.00;99.90
8093;DHT22;4089;52.420;13.334;2023-07-31T13:57:42;22.10;99.90
8093;DHT22;4089;52.420;13.334;2023-07-31T14:00:13;22.20;99.90
8093;DHT22;4089;52.420;13.334;2023-07-31T14:02:40;22.00;99.90
8093;DHT22;4089;52.420;13.334;2023-07-31T14:05:07;22.00;99.90
8093;DHT22;4089;52.420;13.334;2023-07-31T14:07:38;22.00;99.90
8093;DHT22;4089;52.420;13.334;2023-07-31T14:10:05;22.10;99.90
8093;DHT22;4089;52.420;13.334;2023-07-31T14:12:32;21.90;99.90
8093;DHT22;4089;52.420;13.334;2023-07-31T14:15:09;21.80;99.90
8093;DHT22;4089;52.420;13.334;2023-07-31T14:17:36;21.90;99.90
8093;DHT22;4089;52.420;13.334;2023-07-31T14:20:04;21.90;99.90
8093;DHT22;4089;52.420;13.334;2023-07-31T14:22:32;21.90;99.90
8093;DHT22;4089;52.420;13.334;2023-07-31T14:25:01;21.80;99.90
8093;DHT22;4089;52.420;13.334;2023-07-31T14:27:28;21.80;99.90
8093;DHT22;4089;52.420;13.334;2023-07-31T14:29:55;21.90;99.90
8093;DHT22;4089;52.420;13.334;2023-07-31T14:32:22;22.00;99.90
8093;DHT22;4089;52.420;13.334;2023-07-31T14:34:52;22.10;99.90
8093;DHT22;4089;52.420;13.334;2023-07-31T14:37:19;22.00;99.90
8093;DHT22;4089;52.420;13.334;2023-07-31T14:39:46;22.00;99.90
8093;DHT22;4089;52.420;13.334;2023-07-31T14:42:13;22.10;99.90
8093;DHT22;4089;52.420;13.334;2023-07-31T14:44:40;22.10;99.90
8093;DHT22;4089;52.420;13.334;2023-07-31T14:47:07;22.00;99.90
8093;DHT22;4089;52.420;13.334;2023-07-31T14:49:33;22.00;99.90
8093;DHT22;4089;52.420;13.334;2023-07-31T14:52:00;22.00;99.90
8093;DHT22;4089;52.420;13.334;2023-07-31T14:54:27;21.90;99.90
8093;DHT22;4089;52.420;13.334;2023-07-31T14:56:54;21.90;99.90
8093;DHT22;4089;52.420;13.334;2023-07-31T14:59:20;21.90;99.90
8093;DHT22;4089;52.420;13.334;2023-07-31T15:01:47;21.90;99.90
8093;DHT22;4089;52.420;13.334;2023-07-31T15:04:14;21.90;99.90
8093;DHT22;4089;52.420;13.334;2023-07-31T15:06:41;21.90;99.90
8093;DHT22;4089;52.420;13.334;2023-07-31T15:09:08;21.90;99.90
8093;DHT22;4089;52.420;13.334;2023-07-31T15:11:35;21.80;99.90
8093;DHT22;4089;52.420;13.334;2023-07-31T15:14:02;21.80;99.90
8093;DHT22;4089;52.420;13.334;2023-07-31T15:16:29;21.80;99.90
8093;DHT22;4089;52.420;13.334;2023-07-31T15:18:58;21.80;99.90
8093;DHT22;4089;52.420;13.334;2023-07-31T15:21:25;21.80;99.90
8093;DHT22;4089;52.420;13.334;2023-07-31T15:23:52;21.90;99.90
8093;DHT22;4089;52.420;13.334;2023-07-31T15:26:19;21.90;99.90
8093;DHT22;4089;52.420;13.334;2023-07-31T15:28:50;22.00;99.90
8093;DHT22;4089;52.420;13.334;2023-07-31T15:31:21;21.90;99.90
8093;DHT22;4089;52.420;13.334;2023-07-31T15:33:51;21.90;99.90
8093;DHT22;4089;52.420;13.334;2023-07-31T15:36:18;21.90;99.90
8093;DHT22;4089;52.420;13.334;2023-07-31T15:38:45;22.00;99.90
8093;DHT22;4089;52.420;13.334;2023-07-31T15:41:12;22.10;99.90
8093;DHT22;4089;52.420;13.334;2023-07-31T15:43:39;22.20;99.90
8093;DHT22;4089;52.420;13.334;2023-07-31T15:46:06;22.30;99.90
8093;DHT22;4089;52.420;13.334;2023-07-31T15:48:33;22.20;99.90
8093;DHT22;4089;52.420;13.334;2023-07-31T15:50:59;22.20;99.90
8093;DHT22;4089;52.420;13.334;2023-07-31T15:53:27;22.20;99.90
8093;DHT22;4089;52.420;13.334;2023-07-31T15:55:54;22.10;99.90
8093;DHT22;4089;52.420;13.334;2023-07-31T15:58:21;22.10;99.90
8093;DHT22;4089;52.420;13.334;2023-07-31T16:00:48;22.10;99.90
8093;DHT22;4089;52.420;13.334;2023-07-31T16:03:15;22.10;99.90
8093;DHT22;4089;52.420;13.334;2023-07-31T16:05:42;22.10;99.90
8093;DHT22;4089;52.420;13.334;2023-07-31T16:08:09;22.10;99.90
8093;DHT22;4089;52.420;13.334;2023-07-31T16:10:35;22.00;99.90
8093;DHT22;4089;52.420;13.334;2023-07-31T16:13:02;22.00;99.90
8093;DHT22;4089;52.420;13.334;2023-07-31T16:15:30;22.00;99.90
8093;DHT22;4089;52.420;13.334;2023-07-31T16:17:57;21.90;99.90
8093;DHT22;4089;52.420;13.334;2023-07-31T16:20:24;21.90;99.90
8093;DHT22;4089;52.420;13.334;2023-07-31T16:22:51;21.80;99.90
8093;DHT22;4089;52.420;13.334;2023-07-31T16:25:18;21.80;99.90
8093;DHT22;4089;52.420;13.334;2023-07-31T16:27:44;21.80;99.90
8093;DHT22;4089;52.420;13.334;2023-07-31T16:30:11;21.70;99.90
8093;DHT22;4089;52.420;13.334;2023-07-31T16:32:38;21.70;99.90
8093;DHT22;4089;52.420;13.334;2023-07-31T16:35:06;21.70;99.90
8093;DHT22;4089;52.420;13.334;2023-07-31T16:37:33;21.80;99.90
8093;DHT22;4089;52.420;13.334;2023-07-31T16:40:00;21.80;99.90
8093;DHT22;4089;52.420;13.334;2023-07-31T16:42:26;21.90;99.90
8093;DHT22;4089;52.420;13.334;2023-07-31T16:44:53;21.80;99.90
8093;DHT22;4089;52.420;13.334;2023-07-31T16:47:20;21.90;99.90
8093;DHT22;4089;52.420;13.334;2023-07-31T16:49:47;22.00;99.90
8093;DHT22;4089;52.420;13.334;2023-07-31T16:52:13;22.00;99.90
8093;DHT22;4089;52.420;13.334;2023-07-31T16:54:40;22.00;99.90
8093;DHT22;4089;52.420;13.334;2023-07-31T16:57:07;22.00;99.90
8093;DHT22;4089;52.420;13.334;2023-07-31T16:59:34;21.90;99.90
8093;DHT22;4089;52.420;13.334;2023-07-31T17:02:00;21.90;99.90
8093;DHT22;4089;52.420;13.334;2023-07-31T17:04:30;21.80;99.90
8093;DHT22;4089;52.420;13.334;2023-07-31T17:06:58;21.80;99.90
8093;DHT22;4089;52.420;13.334;2023-07-31T17:09:24;21.80;99.90
8093;DHT22;4089;52.420;13.334;2023-07-31T17:11:54;21.80;99.90
8093;DHT22;4089;52.420;13.334;2023-07-31T17:14:21;21.70;99.90
8093;DHT22;4089;52.420;13.334;2023-07-31T17:16:48;21.70;99.90
8093;DHT22;4089;52.420;13.334;2023-07-31T17:19:15;21.70;99.90
8093;DHT22;4089;52.420;13.334;2023-07-31T17:21:42;21.60;99.90
8093;DHT22;4089;52.420;13.334;2023-07-31T17:24:08;21.50;99.90
8093;DHT22;4089;52.420;13.334;2023-07-31T17:26:35;21.40;99.90
8093;DHT22;4089;52.420;13.334;2023-07-31T17:29:02;21.50;99.90
8093;DHT22;4089;52.420;13.334;2023-07-31T17:31:30;21.50;99.90
8093;DHT22;4089;52.420;13.334;2023-07-31T17:33:57;21.40;99.90
8093;DHT22;4089;52.420;13.334;2023-07-31T17:36:24;21.40;99.90
8093;DHT22;4089;52.420;13.334;2023-07-31T17:38:51;21.50;99.90
8093;DHT22;4089;52.420;13.334;2023-07-31T17:41:17;21.50;99.90
8093;DHT22;4089;52.420;13.334;2023-07-31T17:43:44;21.50;99.90
8093;DHT22;4089;52.420;13.334;2023-07-31T17:46:12;21.40;99.90
8093;DHT22;4089;52.420;13.334;2023-07-31T17:48:40;21.40;99.90
8093;DHT22;4089;52.420;13.334;2023-07-31T17:51:08;21.30;99.90
8093;DHT22;4089;52.420;13.334;2023-07-31T17:53:35;21.30;99.90
8093;DHT22;4089;52.420;13.334;2023-07-31T17:56:02;21.20;99.90
8093;DHT22;4089;52.420;13.334;2023-07-31T17:58:29;21.20;99.90
8093;DHT22;4089;52.420;13.334;2023-07-31T18:00:56;21.10;99.90
8093;DHT22;4089;52.420;13.334;2023-07-31T18:03:23;21.10;99.90
8093;DHT22;4089;52.420;13.334;2023-07-31T18:05:52;21.10;99.90
8093;DHT22;4089;52.420;13.334;2023-07-31T18:08:19;21.10;99.90
8093;DHT22;4089;52.420;13.334;2023-07-31T18:10:46;21.00;99.90
8093;DHT22;4089;52.420;13.334;2023-07-31T18:13:14;21.10;99.90
8093;DHT22;4089;52.420;13.334;2023-07-31T18:15:45;21.00;99.90
8093;DHT22;4089;52.420;13.334;2023-07-31T18:18:12;21.00;99.90
8093;DHT22;4089;52.420;13.334;2023-07-31T18:20:39;21.00;99.90
8093;DHT22;4089;52.420;13.334;2023-07-31T18:23:06;21.00;99.90
8093;DHT22;4089;52.420;13.334;2023-07-31T18:25:33;20.90;99.90
8093;DHT22;4089;52.420;13.334;2023-07-31T18:28:00;20.90;99.90
8093;DHT22;4089;52.420;13.334;2023-07-31T18:30:27;20.80;99.90
8093;DHT22;4089;52.420;13.334;2023-07-31T18:32:54;20.80;99.90
8093;DHT22;4089;52.420;13.334;2023-07-31T18:35:21;20.80;99.90
8093;DHT22;4089;52.420;13.334;2023-07-31T18:37:48;20.80;99.90
8093;DHT22;4089;52.420;13.334;2023-07-31T18:40:15;20.70;99.90
8093;DHT22;4089;52.420;13.334;2023-07-31T18:42:42;20.70;99.90
8093;DHT22;4089;52.420;13.334;2023-07-31T18:45:09;20.70;99.90
8093;DHT22;4089;52.420;13.334;2023-07-31T18:47:36;20.80;99.90
8093;DHT22;4089;52.420;13.334;2023-07-31T18:50:03;20.70;99.90
8093;DHT22;4089;52.420;13.334;2023-07-31T18:52:31;20.70;99.90
8093;DHT22;4089;52.420;13.334;2023-07-31T18:54:58;20.70;99.90
8093;DHT22;4089;52.420;13.334;2023-07-31T18:57:26;20.70;99.90
8093;DHT22;4089;52.420;13.334;2023-07-31T18:59:53;20.70;99.90
8093;DHT22;4089;52.420;13.334;2023-07-31T19:02:20;20.70;99.90
8093;DHT22;4089;52.420;13.334;2023-07-31T19:04:46;20.70;99.90
8093;DHT22;4089;52.420;13.334;2023-07-31T19:07:13;20.60;99.90
8093;DHT22;4089;52.420;13.334;2023-07-31T19:09:40;20.60;99.90
8093;DHT22;4089;52.420;13.334;2023-07-31T19:12:07;20.60;99.90
8093;DHT22;4089;52.420;13.334;2023-07-31T19:14:34;20.60;99.90
8093;DHT22;4089;52.420;13.334;2023-07-31T19:17:02;20.60;99.90
8093;DHT22;4089;52.420;13.334;2023-07-31T19:19:28;20.60;99.90
8093;DHT22;4089;52.420;13.334;2023-07-31T19:21:55;20.60;99.90
8093;DHT22;4089;52.420;13.334;2023-07-31T19:24:22;20.60;99.90
8093;DHT22;4089;52.420;13.334;2023-07-31T19:26:57;20.60;99.90
8093;DHT22;4089;52.420;13.334;2023-07-31T19:29:24;20.60;99.90
8093;DHT22;4089;52.420;13.334;2023-07-31T19:31:51;20.50;99.90
8093;DHT22;4089;52.420;13.334;2023-07-31T19:34:18;20.50;99.90
8093;DHT22;4089;52.420;13.334;2023-07-31T19:36:45;20.50;99.90
8093;DHT22;4089;52.420;13.334;2023-07-31T19:39:14;20.40;99.90
8093;DHT22;4089;52.420;13.334;2023-07-31T19:41:41;20.40;99.90
8093;DHT22;4089;52.420;13.334;2023-07-31T19:44:09;20.40;99.90
8093;DHT22;4089;52.420;13.334;2023-07-31T19:46:36;20.30;99.90
8093;DHT22;4089;52.420;13.334;2023-07-31T19:49:04;20.30;99.90
8093;DHT22;4089;52.420;13.334;2023-07-31T19:51:31;20.20;99.90
8093;DHT22;4089;52.420;13.334;2023-07-31T19:53:58;20.20;99.90
8093;DHT22;4089;52.420;13.334;2023-07-31T19:56:25;20.30;99.90
8093;DHT22;4089;52.420;13.334;2023-07-31T19:58:55;20.30;99.90
8093;DHT22;4089;52.420;13.334;2023-07-31T20:01:23;20.20;99.90
8093;DHT22;4089;52.420;13.334;2023-07-31T20:03:52;20.30;99.90
8093;DHT22;4089;52.420;13.334;2023-07-31T20:06:20;20.30;99.90
8093;DHT22;4089;52.420;13.334;2023-07-31T20:08:47;20.30;99.90
8093;DHT22;4089;52.420;13.334;2023-07-31T20:11:14;20.20;99.90
8093;DHT22;4089;52.420;13.334;2023-07-31T20:13:41;20.20;99.90
8093;DHT22;4089;52.420;13.334;2023-07-31T20:16:08;20.20;99.90
8093;DHT22;4089;52.420;13.334;2023-07-31T20:18:35;20.20;99.90
8093;DHT22;4089;52.420;13.334;2023-07-31T20:21:05;20.20;99.90
8093;DHT22;4089;52.420;13.334;2023-07-31T20:23:32;20.20;99.90
8093;DHT22;4089;52.420;13.334;2023-07-31T20:26:09;20.20;99.90
8093;DHT22;4089;52.420;13.334;2023-07-31T20:28:36;20.20;99.90
8093;DHT22;4089;52.420;13.334;2023-07-31T20:31:03;20.10;99.90